createdAt,value
2018-02-18T00:01:46.496Z,95533
2018-02-18T00:04:14.858Z,95534
2018-02-18T00:06:43.202Z,95541
2018-02-18T00:09:12.321Z,95535
2018-02-18T00:11:40.652Z,95537
2018-02-18T00:14:09.921Z,95531
2018-02-18T00:16:38.282Z,95539
2018-02-18T00:19:06.633Z,95537
2018-02-18T00:21:35.733Z,95548
2018-02-18T00:24:04.862Z,95553
2018-02-18T00:26:33.209Z,95563
2018-02-18T00:29:02.342Z,95563
2018-02-18T00:31:30.680Z,95565
2018-02-18T00:33:59.789Z,95566
2018-02-18T00:36:28.129Z,95565
2018-02-18T00:38:56.465Z,95582
2018-02-18T00:41:24.800Z,95583
2018-02-18T00:43:53.903Z,95589
2018-02-18T00:46:23.009Z,95598
2018-02-18T00:48:51.340Z,95589
2018-02-18T00:51:19.673Z,95601
2018-02-18T00:53:48.029Z,95602
2018-02-18T00:56:17.130Z,95610
2018-02-18T00:58:45.489Z,95621
2018-02-18T01:01:14.588Z,95618
2018-02-18T01:03:43.687Z,95610
2018-02-18T01:06:12.820Z,95609
2018-02-18T01:08:41.169Z,95621
2018-02-18T01:11:10.272Z,95628
2018-02-18T01:13:38.641Z,95639
2018-02-18T01:16:07.711Z,95638
2018-02-18T01:18:35.997Z,95636
2018-02-18T01:21:05.102Z,95632
2018-02-18T01:23:34.181Z,95637
2018-02-18T01:26:02.481Z,95637
2018-02-18T01:28:31.601Z,95647
2018-02-18T01:31:00.325Z,95654
2018-02-18T01:33:28.661Z,95646
2018-02-18T01:35:56.997Z,95642
2018-02-18T01:38:25.317Z,95646
2018-02-18T01:40:53.773Z,95653
2018-02-18T01:43:22.880Z,95662
2018-02-18T01:45:51.223Z,95668
2018-02-18T01:48:19.536Z,95677
2018-02-18T01:50:47.873Z,95665
2018-02-18T01:53:16.192Z,95674
2018-02-18T01:55:44.523Z,95678
2018-02-18T01:58:12.861Z,95672
2018-02-18T02:00:41.206Z,95671
2018-02-18T02:03:10.312Z,95682
2018-02-18T02:05:38.664Z,95678
2018-02-18T02:08:07.792Z,95667
2018-02-18T02:10:36.137Z,95682
2018-02-18T02:13:05.261Z,95681
2018-02-18T02:15:33.611Z,95679
2018-02-18T02:18:02.715Z,95679
2018-02-18T02:20:31.823Z,95677
2018-02-18T02:23:00.188Z,95674
2018-02-18T02:25:29.311Z,95682
2018-02-18T02:30:29.516Z,95694
2018-02-18T02:32:58.682Z,95694
2018-02-18T02:35:27.148Z,95682
2018-02-18T02:37:55.567Z,95695
2018-02-18T02:40:24.744Z,95692
2018-02-18T02:42:53.142Z,95697
2018-02-18T02:45:22.326Z,95700
2018-02-18T02:47:50.772Z,95709
2018-02-18T02:50:19.162Z,95719
2018-02-18T02:52:47.566Z,95728
2018-02-18T02:55:15.966Z,95724
2018-02-18T02:57:45.135Z,95725
2018-02-18T03:00:13.606Z,95732
2018-02-18T03:02:41.998Z,95744
2018-02-18T03:05:10.365Z,95736
2018-02-18T03:07:38.757Z,95734
2018-02-18T03:10:07.162Z,95739
2018-02-18T03:12:36.390Z,95743
2018-02-18T03:15:04.785Z,95739
2018-02-18T03:17:33.223Z,95748
2018-02-18T03:20:01.629Z,95749
2018-02-18T03:22:30.025Z,95747
2018-02-18T03:24:58.482Z,95752
2018-02-18T03:27:26.885Z,95756
2018-02-18T03:29:55.257Z,95763
2018-02-18T03:32:23.663Z,95761
2018-02-18T03:34:52.077Z,95765
2018-02-18T03:37:20.535Z,95759
2018-02-18T03:39:49.681Z,95763
2018-02-18T03:42:18.088Z,95759
2018-02-18T03:44:46.485Z,95760
2018-02-18T03:47:14.883Z,95768
2018-02-18T03:49:44.103Z,95765
2018-02-18T03:52:12.505Z,95770
2018-02-18T03:54:40.904Z,95772
2018-02-18T03:57:09.303Z,95771
2018-02-18T03:59:38.470Z,95774
2018-02-18T04:02:06.894Z,95771
2018-02-18T04:04:36.042Z,95772
2018-02-18T04:07:04.442Z,95768
2018-02-18T04:09:32.887Z,95766
2018-02-18T04:12:01.285Z,95765
2018-02-18T04:14:29.700Z,95759
2018-02-18T04:16:58.882Z,95770
2018-02-18T04:19:27.304Z,95769
2018-02-18T04:21:55.682Z,95770
2018-02-18T04:24:24.073Z,95768
2018-02-18T04:26:52.522Z,95770
2018-02-18T04:29:20.925Z,95775
2018-02-18T04:31:49.343Z,95771
2018-02-18T04:34:17.744Z,95771
2018-02-18T04:36:46.922Z,95774
2018-02-18T04:39:15.402Z,95774
2018-02-18T04:41:43.762Z,95780
2018-02-18T04:44:12.252Z,95775
2018-02-18T04:46:40.656Z,95773
2018-02-18T04:49:09.838Z,95767
2018-02-18T04:51:38.282Z,95767
2018-02-18T04:54:06.634Z,95775
2018-02-18T04:56:35.032Z,95776
2018-02-18T04:59:03.443Z,95779
2018-02-18T05:01:31.866Z,95783
2018-02-18T05:04:01.082Z,95784
2018-02-18T05:06:29.502Z,95785
2018-02-18T05:08:57.902Z,95788
2018-02-18T05:11:26.345Z,95791
2018-02-18T05:13:54.762Z,95790
2018-02-18T05:16:23.182Z,95793
2018-02-18T05:18:51.604Z,95797
2018-02-18T05:21:19.978Z,95803
2018-02-18T05:23:48.383Z,95810
2018-02-18T05:26:17.562Z,95805
2018-02-18T05:28:45.974Z,95812
2018-02-18T05:31:14.330Z,95813
2018-02-18T05:33:43.499Z,95815
2018-02-18T05:36:11.896Z,95816
2018-02-18T05:38:40.367Z,95819
2018-02-18T05:41:08.775Z,95819
2018-02-18T05:43:37.912Z,95816
2018-02-18T05:46:06.297Z,95820
2018-02-18T05:48:34.661Z,95819
2018-02-18T05:51:03.071Z,95821
2018-02-18T05:53:31.550Z,95838
2018-02-18T05:55:59.917Z,95836
2018-02-18T05:58:28.289Z,95831
2018-02-18T06:00:56.646Z,95837
2018-02-18T06:03:25.018Z,95838
2018-02-18T06:05:53.554Z,95836
2018-02-18T06:08:22.082Z,95833
2018-02-18T06:10:50.442Z,95837
2018-02-18T06:13:18.930Z,95844
2018-02-18T06:15:47.289Z,95845
2018-02-18T06:18:16.583Z,95851
2018-02-18T06:20:45.137Z,95861
2018-02-18T06:23:13.529Z,95852
2018-02-18T06:25:41.890Z,95860
2018-02-18T06:28:10.254Z,95865
2018-02-18T06:30:38.662Z,95868
2018-02-18T06:33:07.018Z,95872
2018-02-18T06:35:35.534Z,95875
2018-02-18T06:38:03.897Z,95877
2018-02-18T06:40:32.258Z,95874
2018-02-18T06:43:00.674Z,95877
2018-02-18T06:45:29.045Z,95875
2018-02-18T06:47:57.415Z,95884
2018-02-18T06:50:25.800Z,95883
2018-02-18T06:52:54.185Z,95878
2018-02-18T06:55:22.598Z,95881
2018-02-18T06:57:50.955Z,95880
2018-02-18T07:00:20.125Z,95879
2018-02-18T07:02:48.488Z,95876
2018-02-18T07:05:16.890Z,95883
2018-02-18T07:07:45.287Z,95882
2018-02-18T07:10:14.418Z,95879
2018-02-18T07:12:42.862Z,95879
2018-02-18T07:15:12.129Z,95881
2018-02-18T07:17:40.759Z,95879
2018-02-18T07:20:09.312Z,95883
2018-02-18T07:22:37.806Z,95880
2018-02-18T07:25:06.947Z,95891
2018-02-18T07:27:35.329Z,95885
2018-02-18T07:30:03.710Z,95891
2018-02-18T07:32:32.127Z,95896
2018-02-18T07:35:00.510Z,95902
2018-02-18T07:37:28.884Z,95895
2018-02-18T07:39:57.271Z,95894
2018-02-18T07:42:25.671Z,95887
2018-02-18T07:44:54.098Z,95890
2018-02-18T07:47:22.631Z,95891
2018-02-18T07:49:51.002Z,95901
2018-02-18T07:52:20.295Z,95901
2018-02-18T07:54:49.416Z,95897
2018-02-18T07:57:17.851Z,95897
2018-02-18T07:59:46.191Z,95899
2018-02-18T08:02:14.559Z,95892
2018-02-18T08:04:42.928Z,95893
2018-02-18T08:07:11.322Z,95899
2018-02-18T08:09:39.724Z,95902
2018-02-18T08:12:08.075Z,95906
2018-02-18T08:14:36.438Z,95904
2018-02-18T08:17:04.856Z,95909
2018-02-18T08:19:33.229Z,95907
2018-02-18T08:22:01.662Z,95907
2018-02-18T08:24:30.795Z,95908
2018-02-18T08:26:59.928Z,95904
2018-02-18T08:29:28.304Z,95910
2018-02-18T08:31:56.669Z,95908
2018-02-18T08:34:25.083Z,95909
2018-02-18T08:36:54.229Z,95911
2018-02-18T08:39:22.587Z,95908
2018-02-18T08:41:50.997Z,95909
2018-02-18T08:44:19.385Z,95902
2018-02-18T08:46:47.775Z,95904
2018-02-18T08:49:16.208Z,95904
2018-02-18T08:51:44.627Z,95898
2018-02-18T08:54:12.988Z,95902
2018-02-18T08:56:41.357Z,95895
2018-02-18T08:59:09.731Z,95898
2018-02-18T09:01:38.119Z,95896
2018-02-18T09:04:06.538Z,95895
2018-02-18T09:06:35.735Z,95900
2018-02-18T09:09:05.058Z,95901
2018-02-18T09:11:33.422Z,95900
2018-02-18T09:14:02.581Z,95901
2018-02-18T09:16:31.008Z,95905
2018-02-18T09:18:59.373Z,95897
2018-02-18T09:21:28.511Z,95917
2018-02-18T09:23:56.868Z,95912
2018-02-18T09:26:25.260Z,95908
2018-02-18T09:28:53.667Z,95911
2018-02-18T09:31:22.029Z,95912
2018-02-18T09:33:50.397Z,95915
2018-02-18T09:36:18.751Z,95919
2018-02-18T09:38:47.895Z,95913
2018-02-18T09:41:16.307Z,95913
2018-02-18T09:43:45.428Z,95923
2018-02-18T09:46:13.984Z,95929
2018-02-18T09:48:42.367Z,95930
2018-02-18T09:51:12.256Z,95930
2018-02-18T09:53:40.808Z,95934
2018-02-18T09:56:09.186Z,95932
2018-02-18T09:58:38.327Z,95934
2018-02-18T10:01:06.699Z,95942
2018-02-18T10:03:35.071Z,95938
2018-02-18T10:06:03.478Z,95937
2018-02-18T10:08:32.662Z,95930
2018-02-18T10:11:01.044Z,95936
2018-02-18T10:13:30.167Z,95933
2018-02-18T10:15:58.622Z,95926
2018-02-18T10:18:27.832Z,95932
2018-02-18T10:20:56.984Z,95930
2018-02-18T10:23:25.354Z,95932
2018-02-18T10:25:53.727Z,95932
2018-02-18T10:28:22.106Z,95938
2018-02-18T10:30:50.519Z,95934
2018-02-18T10:33:18.883Z,95932
2018-02-18T10:35:47.263Z,95931
2018-02-18T10:38:15.627Z,95930
2018-02-18T10:40:44.014Z,95928
2018-02-18T10:43:12.442Z,95929
2018-02-18T10:45:40.810Z,95930
2018-02-18T10:48:09.316Z,95929
2018-02-18T10:50:37.694Z,95930
2018-02-18T10:53:06.067Z,95925
2018-02-18T10:55:34.519Z,95927
2018-02-18T10:58:03.656Z,95919
2018-02-18T11:00:32.002Z,95919
2018-02-18T11:03:01.150Z,95913
2018-02-18T11:05:29.514Z,95911
2018-02-18T11:07:57.966Z,95908
2018-02-18T11:10:26.343Z,95899
2018-02-18T11:12:54.710Z,95899
2018-02-18T11:15:23.882Z,95899
2018-02-18T11:17:52.279Z,95899
2018-02-18T11:20:21.485Z,95893
2018-02-18T11:22:50.626Z,95899
2018-02-18T11:25:18.982Z,95901
2018-02-18T11:27:47.366Z,95899
2018-02-18T11:30:15.740Z,95895
2018-02-18T11:32:44.170Z,95898
2018-02-18T11:35:12.565Z,95896
2018-02-18T11:37:41.678Z,95892
2018-02-18T11:40:10.056Z,95888
2018-02-18T11:42:38.420Z,95890
2018-02-18T11:45:07.630Z,95893
2018-02-18T11:47:35.977Z,95885
2018-02-18T11:50:04.345Z,95882
2018-02-18T11:52:32.734Z,95883
2018-02-18T11:55:01.093Z,95886
2018-02-18T11:57:29.517Z,95882
2018-02-18T11:59:58.653Z,95879
2018-02-18T12:02:27.057Z,95872
2018-02-18T12:04:55.524Z,95864
2018-02-18T12:07:23.906Z,95876
2018-02-18T12:09:52.347Z,95870
2018-02-18T12:12:20.716Z,95866
2018-02-18T12:14:49.128Z,95862
2018-02-18T12:17:17.514Z,95862
2018-02-18T12:19:45.858Z,95861
2018-02-18T12:22:14.281Z,95856
2018-02-18T12:24:42.647Z,95858
2018-02-18T12:27:11.170Z,95857
2018-02-18T12:29:40.887Z,95845
2018-02-18T12:32:10.136Z,95847
2018-02-18T12:34:38.551Z,95845
2018-02-18T12:37:06.984Z,95844
2018-02-18T12:39:35.378Z,95843
2018-02-18T12:42:03.812Z,95838
2018-02-18T12:44:32.184Z,95835
2018-02-18T12:47:01.406Z,95835
2018-02-18T12:49:29.840Z,95829
2018-02-18T12:51:58.263Z,95829
2018-02-18T12:54:26.683Z,95828
2018-02-18T12:56:55.050Z,95828
2018-02-18T12:59:23.447Z,95823
2018-02-18T13:01:51.823Z,95820
2018-02-18T13:04:20.203Z,95818
2018-02-18T13:06:48.611Z,95817
2018-02-18T13:09:18.000Z,95819
2018-02-18T13:11:46.359Z,95817
2018-02-18T13:14:15.147Z,95822
2018-02-18T13:16:43.523Z,95828
2018-02-18T13:19:11.961Z,95821
2018-02-18T13:21:40.338Z,95818
2018-02-18T13:24:08.714Z,95815
2018-02-18T13:26:37.104Z,95810
2018-02-18T13:29:05.539Z,95814
2018-02-18T13:31:34.768Z,95807
2018-02-18T13:34:03.126Z,95808
2018-02-18T13:36:32.318Z,95809
2018-02-18T13:39:01.471Z,95812
2018-02-18T13:41:29.855Z,95806
2018-02-18T13:43:58.294Z,95805
2018-02-18T13:46:26.666Z,95799
2018-02-18T13:48:55.135Z,95802
2018-02-18T13:51:24.304Z,95801
2018-02-18T13:53:52.666Z,95797
2018-02-18T13:56:21.142Z,95800
2018-02-18T13:58:49.603Z,95798
2018-02-18T14:01:18.067Z,95800
2018-02-18T14:03:46.459Z,95798
2018-02-18T14:06:14.836Z,95798
2018-02-18T14:08:43.320Z,95798
2018-02-18T14:11:11.717Z,95798
2018-02-18T14:13:40.089Z,95802
2018-02-18T14:16:08.487Z,95800
2018-02-18T14:18:36.857Z,95797
2018-02-18T14:21:05.259Z,95799
2018-02-18T14:23:33.622Z,95801
2018-02-18T14:26:02.002Z,95796
2018-02-18T14:28:30.362Z,95789
2018-02-18T14:30:58.743Z,95788
2018-02-18T14:33:27.185Z,95794
2018-02-18T14:35:55.587Z,95796
2018-02-18T14:38:23.946Z,95798
2018-02-18T14:40:52.348Z,95802
2018-02-18T14:43:38.644Z,95799
2018-02-18T14:46:24.535Z,95806
2018-02-18T14:49:10.684Z,95801
2018-02-18T14:51:57.687Z,95808
2018-02-18T14:57:36.620Z,95810
2018-02-18T15:00:05.116Z,95816
2018-02-18T15:02:34.338Z,95820
2018-02-18T15:05:03.480Z,95818
2018-02-18T15:07:31.899Z,95821
2018-02-18T15:10:01.064Z,95825
2018-02-18T15:12:29.502Z,95824
2018-02-18T15:14:57.944Z,95832
2018-02-18T15:17:26.323Z,95826
2018-02-18T15:19:54.699Z,95827
2018-02-18T15:22:23.120Z,95833
2018-02-18T15:24:51.492Z,95831
2018-02-18T15:27:19.900Z,95831
2018-02-18T15:29:48.271Z,95831
2018-02-18T15:32:16.648Z,95830
2018-02-18T15:34:45.828Z,95834
2018-02-18T15:37:14.203Z,95831
2018-02-18T15:39:42.647Z,95829
2018-02-18T15:42:10.999Z,95827
2018-02-18T15:44:39.359Z,95826
2018-02-18T15:47:07.744Z,95828
2018-02-18T15:49:36.131Z,95832
2018-02-18T15:52:04.580Z,95827
2018-02-18T15:54:32.942Z,95831
2018-02-18T15:57:02.095Z,95829
2018-02-18T15:59:30.472Z,95831
2018-02-18T16:01:58.819Z,95835
2018-02-18T16:04:27.247Z,95834
2018-02-18T16:06:55.627Z,95837
2018-02-18T16:09:24.017Z,95842
2018-02-18T16:11:53.200Z,95841
2018-02-18T16:14:21.588Z,95840
2018-02-18T16:16:50.808Z,95841
2018-02-18T16:19:19.187Z,95843
2018-02-18T16:21:47.573Z,95840
2018-02-18T16:24:15.947Z,95840
2018-02-18T16:26:44.311Z,95842
2018-02-18T16:29:13.511Z,95844
2018-02-18T16:31:42.746Z,95850
2018-02-18T16:34:11.145Z,95842
2018-02-18T16:36:39.594Z,95835
2018-02-18T16:39:07.992Z,95837
2018-02-18T16:41:36.407Z,95835
2018-02-18T16:44:04.798Z,95840
2018-02-18T16:46:33.248Z,95833
2018-02-18T16:49:01.616Z,95844
2018-02-18T16:51:29.995Z,95844
2018-02-18T16:53:58.524Z,95844
2018-02-18T16:56:27.772Z,95841
2018-02-18T16:58:56.150Z,95842
2018-02-18T17:01:24.515Z,95840
2018-02-18T17:03:52.907Z,95836
2018-02-18T17:06:21.443Z,95837
2018-02-18T17:08:50.655Z,95836
2018-02-18T17:11:19.306Z,95839
2018-02-18T17:13:48.648Z,95843
2018-02-18T17:16:17.086Z,95848
2018-02-18T17:18:46.328Z,95846
2018-02-18T17:21:14.874Z,95842
2018-02-18T17:23:44.088Z,95844
2018-02-18T17:26:12.571Z,95841
2018-02-18T17:28:40.963Z,95844
2018-02-18T17:31:09.388Z,95840
2018-02-18T17:33:37.788Z,95840
2018-02-18T17:36:06.916Z,95835
2018-02-18T17:38:35.340Z,95835
2018-02-18T17:41:03.724Z,95833
2018-02-18T17:43:32.924Z,95834
2018-02-18T17:46:01.343Z,95831
2018-02-18T17:48:29.707Z,95829
2018-02-18T17:50:58.852Z,95833
2018-02-18T17:53:27.213Z,95832
2018-02-18T17:55:55.638Z,95828
2018-02-18T17:58:23.989Z,95831
2018-02-18T18:00:52.368Z,95831
2018-02-18T18:03:20.753Z,95832
2018-02-18T18:05:49.109Z,95835
2018-02-18T18:08:18.228Z,95830
2018-02-18T18:10:46.600Z,95829
2018-02-18T18:13:14.951Z,95829
2018-02-18T18:15:43.373Z,95824
2018-02-18T18:18:11.763Z,95819
2018-02-18T18:20:40.280Z,95826
2018-02-18T18:23:08.691Z,95823
2018-02-18T18:25:37.872Z,95816
2018-02-18T18:28:06.257Z,95815
2018-02-18T18:30:34.647Z,95811
2018-02-18T18:33:03.129Z,95811
2018-02-18T18:35:31.488Z,95817
2018-02-18T18:37:59.898Z,95810
2018-02-18T18:40:28.285Z,95809
2018-02-18T18:42:56.626Z,95810
2018-02-18T18:45:25.065Z,95803
2018-02-18T18:47:54.210Z,95806
2018-02-18T18:50:22.610Z,95808
2018-02-18T18:52:50.981Z,95804
2018-02-18T18:55:19.374Z,95803
2018-02-18T18:57:47.826Z,95804
2018-02-18T19:00:16.266Z,95795
2018-02-18T19:02:44.646Z,95797
2018-02-18T19:05:13.056Z,95795
2018-02-18T19:07:41.567Z,95788
2018-02-18T19:10:10.217Z,95792
2018-02-18T19:12:38.594Z,95786
2018-02-18T19:15:06.999Z,95782
2018-02-18T19:17:35.376Z,95782
2018-02-18T19:20:03.765Z,95787
2018-02-18T19:22:32.179Z,95779
2018-02-18T19:25:00.571Z,95774
2018-02-18T19:27:28.963Z,95765
2018-02-18T19:29:57.316Z,95771
2018-02-18T19:32:25.686Z,95767
2018-02-18T19:34:54.922Z,95766
2018-02-18T19:37:23.295Z,95764
2018-02-18T19:39:51.689Z,95761
2018-02-18T19:42:20.059Z,95758
2018-02-18T19:44:48.459Z,95763
2018-02-18T19:47:16.907Z,95758
2018-02-18T19:49:45.300Z,95761
2018-02-18T19:52:13.683Z,95760
2018-02-18T19:54:42.103Z,95756
2018-02-18T19:57:11.245Z,95753
2018-02-18T19:59:39.720Z,95749
2018-02-18T20:02:08.833Z,95750
2018-02-18T20:04:37.278Z,95753
2018-02-18T20:07:05.667Z,95757
2018-02-18T20:09:34.047Z,95756
2018-02-18T20:12:02.547Z,95759
2018-02-18T20:14:30.970Z,95757
2018-02-18T20:17:00.135Z,95755
2018-02-18T20:19:29.603Z,95755
2018-02-18T20:21:58.005Z,95756
2018-02-18T20:24:26.835Z,95749
2018-02-18T20:26:56.004Z,95748
2018-02-18T20:29:24.393Z,95750
2018-02-18T20:31:52.821Z,95746
2018-02-18T20:34:21.282Z,95747
2018-02-18T20:36:50.489Z,95748
2018-02-18T20:39:18.868Z,95749
2018-02-18T20:41:47.301Z,95741
2018-02-18T20:44:15.714Z,95738
2018-02-18T20:46:44.879Z,95736
2018-02-18T20:49:13.339Z,95731
2018-02-18T20:51:41.784Z,95732
2018-02-18T20:54:10.147Z,95726
2018-02-18T20:56:39.272Z,95717
2018-02-18T20:59:07.643Z,95713
2018-02-18T21:01:36.083Z,95711
2018-02-18T21:04:04.476Z,95705
2018-02-18T21:06:33.618Z,95702
2018-02-18T21:09:02.012Z,95698
2018-02-18T21:11:30.391Z,95702
2018-02-18T21:13:58.889Z,95696
2018-02-18T21:16:27.280Z,95699
2018-02-18T21:18:55.656Z,95693
2018-02-18T21:21:24.044Z,95695
2018-02-18T21:23:53.222Z,95692
2018-02-18T21:26:21.632Z,95684
2018-02-18T21:28:50.782Z,95690
2018-02-18T21:31:19.163Z,95688
2018-02-18T21:33:47.576Z,95693
2018-02-18T21:36:17.568Z,95695
2018-02-18T21:38:46.007Z,95686
2018-02-18T21:41:14.368Z,95682
2018-02-18T21:43:42.754Z,95682
2018-02-18T21:46:11.140Z,95683
2018-02-18T21:48:39.516Z,95681
2018-02-18T21:51:07.971Z,95679
2018-02-18T21:53:37.126Z,95680
2018-02-18T21:56:05.522Z,95677
2018-02-18T21:58:33.918Z,95675
2018-02-18T22:01:03.055Z,95672
2018-02-18T22:03:31.504Z,95675
2018-02-18T22:05:59.894Z,95665
2018-02-18T22:08:28.282Z,95663
2018-02-18T22:10:56.651Z,95654
2018-02-18T22:13:25.030Z,95653
2018-02-18T22:15:53.473Z,95653
2018-02-18T22:18:21.837Z,95658
2018-02-18T22:20:50.208Z,95659
2018-02-18T22:23:18.592Z,95652
2018-02-18T22:25:46.987Z,95661
2018-02-18T22:28:15.419Z,95661
2018-02-18T22:30:43.790Z,95661
2018-02-18T22:33:12.143Z,95664
2018-02-18T22:35:41.271Z,95658
2018-02-18T22:38:09.663Z,95654
2018-02-18T22:40:38.103Z,95650
2018-02-18T22:43:07.249Z,95652
2018-02-18T22:45:35.633Z,95649
2018-02-18T22:48:04.026Z,95649
2018-02-18T22:50:32.403Z,95655
2018-02-18T22:53:01.762Z,95652
2018-02-18T22:55:30.128Z,95655
2018-02-18T22:57:58.500Z,95650
2018-02-18T23:00:26.863Z,95650
2018-02-18T23:02:56.022Z,95647
2018-02-18T23:05:29.944Z,95645
2018-02-18T23:07:58.297Z,95642
2018-02-18T23:10:26.699Z,95644
2018-02-18T23:12:55.084Z,95646
2018-02-18T23:15:23.550Z,95639
2018-02-18T23:17:51.965Z,95639
2018-02-18T23:20:21.134Z,95633
2018-02-18T23:22:49.502Z,95637
2018-02-18T23:25:17.869Z,95626
2018-02-18T23:27:46.230Z,95629
2018-02-18T23:30:14.658Z,95618
2018-02-18T23:32:43.065Z,95618
2018-02-18T23:35:11.480Z,95619
2018-02-18T23:37:39.851Z,95614
2018-02-18T23:40:08.975Z,95615
2018-02-18T23:42:37.413Z,95611
2018-02-18T23:45:05.803Z,95614
2018-02-18T23:47:34.177Z,95613
2018-02-18T23:50:02.524Z,95611
2018-02-18T23:52:31.651Z,95610
2018-02-18T23:55:00.063Z,95612
2018-02-18T23:57:28.442Z,95607
2018-02-18T23:59:56.948Z,95606
